sensor_id;sensor_type;location;lat;lon;timestamp;P1;durP1;ratioP1;P2;durP2;ratioP2
16737;SDS011;17906;47.684;10.806;2024-02-14T00:02:24;5.07;;;2.23;;
16737;SDS011;17906;47.684;10.806;2024-02-14T00:04:51;4.87;;;2.27;;
16737;SDS011;17906;47.684;10.806;2024-02-14T00:07:19;5.80;;;1.70;;
16737;SDS011;17906;47.684;10.806;2024-02-14T00:09:46;5.23;;;1.37;;
16737;SDS011;17906;47.684;10.806;2024-02-14T00:12:12;4.00;;;1.57;;
16737;SDS011;17906;47.684;10.806;2024-02-14T00:14:39;4.57;;;1.47;;
16737;SDS011;17906;47.684;10.806;2024-02-14T00:17:05;6.03;;;1.90;;
16737;SDS011;17906;47.684;10.806;2024-02-14T00:19:32;6.23;;;2.00;;
16737;SDS011;17906;47.684;10.806;2024-02-14T00:21:58;4.53;;;1.97;;
16737;SDS011;17906;47.684;10.806;2024-02-14T00:24:26;3.40;;;1.57;;
16737;SDS011;17906;47.684;10.806;2024-02-14T00:26:54;5.23;;;2.10;;
16737;SDS011;17906;47.684;10.806;2024-02-14T00:29:21;3.37;;;1.20;;
16737;SDS011;17906;47.684;10.806;2024-02-14T00:31:48;2.17;;;1.13;;
16737;SDS011;17906;47.684;10.806;2024-02-14T00:34:14;4.53;;;1.40;;
16737;SDS011;17906;47.684;10.806;2024-02-14T00:36:41;2.40;;;1.03;;
16737;SDS011;17906;47.684;10.806;2024-02-14T00:39:07;2.87;;;1.30;;
16737;SDS011;17906;47.684;10.806;2024-02-14T00:41:36;3.30;;;1.10;;
16737;SDS011;17906;47.684;10.806;2024-02-14T00:44:02;2.60;;;1.30;;
16737;SDS011;17906;47.684;10.806;2024-02-14T00:46:29;3.20;;;1.40;;
16737;SDS011;17906;47.684;10.806;2024-02-14T00:48:55;5.00;;;2.00;;
16737;SDS011;17906;47.684;10.806;2024-02-14T00:51:21;4.83;;;2.13;;
16737;SDS011;17906;47.684;10.806;2024-02-14T00:53:48;4.67;;;1.90;;
16737;SDS011;17906;47.684;10.806;2024-02-14T00:56:15;3.40;;;0.90;;
16737;SDS011;17906;47.684;10.806;2024-02-14T00:58:43;2.43;;;1.00;;
16737;SDS011;17906;47.684;10.806;2024-02-14T01:01:10;2.67;;;1.17;;
16737;SDS011;17906;47.684;10.806;2024-02-14T01:03:37;3.23;;;1.00;;
16737;SDS011;17906;47.684;10.806;2024-02-14T01:06:03;1.53;;;1.07;;
16737;SDS011;17906;47.684;10.806;2024-02-14T01:08:30;2.10;;;1.10;;
16737;SDS011;17906;47.684;10.806;2024-02-14T01:10:56;2.40;;;1.07;;
16737;SDS011;17906;47.684;10.806;2024-02-14T01:13:22;3.67;;;1.20;;
16737;SDS011;17906;47.684;10.806;2024-02-14T01:15:50;1.47;;;0.90;;
16737;SDS011;17906;47.684;10.806;2024-02-14T01:18:16;3.60;;;1.03;;
16737;SDS011;17906;47.684;10.806;2024-02-14T01:20:43;3.13;;;1.03;;
16737;SDS011;17906;47.684;10.806;2024-02-14T01:23:09;3.00;;;1.33;;
16737;SDS011;17906;47.684;10.806;2024-02-14T01:25:35;5.97;;;1.20;;
16737;SDS011;17906;47.684;10.806;2024-02-14T01:28:02;2.57;;;1.00;;
16737;SDS011;17906;47.684;10.806;2024-02-14T01:30:30;1.83;;;0.90;;
16737;SDS011;17906;47.684;10.806;2024-02-14T01:32:57;1.73;;;1.10;;
16737;SDS011;17906;47.684;10.806;2024-02-14T01:35:25;5.33;;;1.10;;
16737;SDS011;17906;47.684;10.806;2024-02-14T01:37:52;3.00;;;1.20;;
16737;SDS011;17906;47.684;10.806;2024-02-14T01:40:19;1.97;;;0.90;;
16737;SDS011;17906;47.684;10.806;2024-02-14T01:42:46;2.03;;;0.90;;
16737;SDS011;17906;47.684;10.806;2024-02-14T01:45:12;1.47;;;1.00;;
16737;SDS011;17906;47.684;10.806;2024-02-14T01:47:38;2.17;;;1.10;;
16737;SDS011;17906;47.684;10.806;2024-02-14T01:50:08;1.60;;;0.80;;
16737;SDS011;17906;47.684;10.806;2024-02-14T01:52:36;1.93;;;0.97;;
16737;SDS011;17906;47.684;10.806;2024-02-14T01:55:03;2.63;;;0.93;;
16737;SDS011;17906;47.684;10.806;2024-02-14T01:57:31;4.70;;;1.57;;
16737;SDS011;17906;47.684;10.806;2024-02-14T01:59:59;2.13;;;1.00;;
16737;SDS011;17906;47.684;10.806;2024-02-14T02:02:26;3.43;;;0.90;;
16737;SDS011;17906;47.684;10.806;2024-02-14T02:04:53;1.90;;;0.90;;
16737;SDS011;17906;47.684;10.806;2024-02-14T02:07:20;2.07;;;0.87;;
16737;SDS011;17906;47.684;10.806;2024-02-14T02:09:46;3.03;;;1.30;;
16737;SDS011;17906;47.684;10.806;2024-02-14T02:12:13;1.67;;;1.00;;
16737;SDS011;17906;47.684;10.806;2024-02-14T02:14:39;2.00;;;0.87;;
16737;SDS011;17906;47.684;10.806;2024-02-14T02:17:06;1.90;;;1.00;;
16737;SDS011;17906;47.684;10.806;2024-02-14T02:19:34;2.77;;;1.30;;
16737;SDS011;17906;47.684;10.806;2024-02-14T02:22:01;3.40;;;1.40;;
16737;SDS011;17906;47.684;10.806;2024-02-14T02:24:30;1.80;;;0.87;;
16737;SDS011;17906;47.684;10.806;2024-02-14T02:26:56;2.20;;;1.00;;
16737;SDS011;17906;47.684;10.806;2024-02-14T02:29:22;2.87;;;1.20;;
16737;SDS011;17906;47.684;10.806;2024-02-14T02:31:49;1.77;;;1.00;;
16737;SDS011;17906;47.684;10.806;2024-02-14T02:34:15;2.07;;;1.00;;
16737;SDS011;17906;47.684;10.806;2024-02-14T02:36:43;2.67;;;0.90;;
16737;SDS011;17906;47.684;10.806;2024-02-14T02:39:11;1.67;;;0.80;;
16737;SDS011;17906;47.684;10.806;2024-02-14T02:41:39;5.80;;;1.00;;
16737;SDS011;17906;47.684;10.806;2024-02-14T02:44:05;3.10;;;1.10;;
16737;SDS011;17906;47.684;10.806;2024-02-14T02:46:32;3.47;;;1.40;;
16737;SDS011;17906;47.684;10.806;2024-02-14T02:48:58;2.73;;;1.17;;
16737;SDS011;17906;47.684;10.806;2024-02-14T02:51:24;3.60;;;1.07;;
16737;SDS011;17906;47.684;10.806;2024-02-14T02:53:52;1.50;;;0.93;;
16737;SDS011;17906;47.684;10.806;2024-02-14T02:56:19;1.90;;;0.90;;
16737;SDS011;17906;47.684;10.806;2024-02-14T02:58:48;2.40;;;1.33;;
16737;SDS011;17906;47.684;10.806;2024-02-14T03:01:14;3.83;;;1.20;;
16737;SDS011;17906;47.684;10.806;2024-02-14T03:03:41;1.53;;;0.80;;
16737;SDS011;17906;47.684;10.806;2024-02-14T03:06:07;1.50;;;0.80;;
16737;SDS011;17906;47.684;10.806;2024-02-14T03:08:34;2.50;;;0.90;;
16737;SDS011;17906;47.684;10.806;2024-02-14T03:11:02;1.57;;;0.70;;
16737;SDS011;17906;47.684;10.806;2024-02-14T03:13:28;2.53;;;1.00;;
16737;SDS011;17906;47.684;10.806;2024-02-14T03:15:56;3.73;;;1.20;;
16737;SDS011;17906;47.684;10.806;2024-02-14T03:18:23;5.27;;;1.63;;
16737;SDS011;17906;47.684;10.806;2024-02-14T03:20:50;2.60;;;0.83;;
16737;SDS011;17906;47.684;10.806;2024-02-14T03:23:18;2.57;;;0.80;;
16737;SDS011;17906;47.684;10.806;2024-02-14T03:25:45;1.30;;;0.70;;
16737;SDS011;17906;47.684;10.806;2024-02-14T03:28:11;3.87;;;1.10;;
16737;SDS011;17906;47.684;10.806;2024-02-14T03:30:38;1.73;;;1.00;;
16737;SDS011;17906;47.684;10.806;2024-02-14T03:33:06;3.33;;;0.90;;
16737;SDS011;17906;47.684;10.806;2024-02-14T03:35:33;0.90;;;0.53;;
16737;SDS011;17906;47.684;10.806;2024-02-14T03:37:59;1.80;;;0.77;;
16737;SDS011;17906;47.684;10.806;2024-02-14T03:40:26;1.50;;;0.70;;
16737;SDS011;17906;47.684;10.806;2024-02-14T03:42:52;1.87;;;0.77;;
16737;SDS011;17906;47.684;10.806;2024-02-14T03:45:18;1.97;;;0.60;;
16737;SDS011;17906;47.684;10.806;2024-02-14T03:47:46;1.53;;;0.73;;
16737;SDS011;17906;47.684;10.806;2024-02-14T03:50:13;1.30;;;0.83;;
16737;SDS011;17906;47.684;10.806;2024-02-14T03:52:40;3.50;;;0.63;;
16737;SDS011;17906;47.684;10.806;2024-02-14T03:55:08;1.50;;;0.60;;
16737;SDS011;17906;47.684;10.806;2024-02-14T03:57:38;2.47;;;0.70;;
16737;SDS011;17906;47.684;10.806;2024-02-14T04:00:05;1.90;;;0.80;;
16737;SDS011;17906;47.684;10.806;2024-02-14T04:02:35;2.93;;;1.40;;
16737;SDS011;17906;47.684;10.806;2024-02-14T04:05:01;3.77;;;1.47;;
16737;SDS011;17906;47.684;10.806;2024-02-14T04:07:29;2.70;;;0.90;;
16737;SDS011;17906;47.684;10.806;2024-02-14T04:09:56;2.57;;;0.83;;
16737;SDS011;17906;47.684;10.806;2024-02-14T04:12:22;1.77;;;0.80;;
16737;SDS011;17906;47.684;10.806;2024-02-14T04:14:49;4.37;;;0.90;;
16737;SDS011;17906;47.684;10.806;2024-02-14T04:17:15;4.40;;;0.83;;
16737;SDS011;17906;47.684;10.806;2024-02-14T04:19:42;1.47;;;0.70;;
16737;SDS011;17906;47.684;10.806;2024-02-14T04:22:08;3.27;;;0.93;;
16737;SDS011;17906;47.684;10.806;2024-02-14T04:24:36;3.20;;;1.00;;
16737;SDS011;17906;47.684;10.806;2024-02-14T04:27:02;1.70;;;1.20;;
16737;SDS011;17906;47.684;10.806;2024-02-14T04:29:29;4.00;;;1.50;;
16737;SDS011;17906;47.684;10.806;2024-02-14T04:31:58;5.63;;;2.10;;
16737;SDS011;17906;47.684;10.806;2024-02-14T04:34:24;5.67;;;2.33;;
16737;SDS011;17906;47.684;10.806;2024-02-14T04:36:50;5.60;;;2.10;;
16737;SDS011;17906;47.684;10.806;2024-02-14T04:39:17;8.87;;;2.50;;
16737;SDS011;17906;47.684;10.806;2024-02-14T04:41:45;6.57;;;2.47;;
16737;SDS011;17906;47.684;10.806;2024-02-14T04:44:11;5.50;;;2.33;;
16737;SDS011;17906;47.684;10.806;2024-02-14T04:46:38;7.53;;;3.00;;
16737;SDS011;17906;47.684;10.806;2024-02-14T04:49:08;13.50;;;3.43;;
16737;SDS011;17906;47.684;10.806;2024-02-14T04:51:35;8.43;;;3.27;;
16737;SDS011;17906;47.684;10.806;2024-02-14T04:54:01;7.40;;;2.47;;
16737;SDS011;17906;47.684;10.806;2024-02-14T04:56:27;8.77;;;2.93;;
16737;SDS011;17906;47.684;10.806;2024-02-14T04:58:55;5.43;;;2.87;;
16737;SDS011;17906;47.684;10.806;2024-02-14T05:01:22;5.00;;;2.50;;
16737;SDS011;17906;47.684;10.806;2024-02-14T05:03:48;5.20;;;2.50;;
16737;SDS011;17906;47.684;10.806;2024-02-14T05:06:15;7.37;;;3.00;;
16737;SDS011;17906;47.684;10.806;2024-02-14T05:08:41;6.93;;;3.33;;
16737;SDS011;17906;47.684;10.806;2024-02-14T05:11:08;7.47;;;2.80;;
16737;SDS011;17906;47.684;10.806;2024-02-14T05:13:34;6.90;;;2.90;;
16737;SDS011;17906;47.684;10.806;2024-02-14T05:16:04;5.60;;;2.27;;
16737;SDS011;17906;47.684;10.806;2024-02-14T05:18:31;5.83;;;2.53;;
16737;SDS011;17906;47.684;10.806;2024-02-14T05:20:57;4.30;;;2.13;;
16737;SDS011;17906;47.684;10.806;2024-02-14T05:23:24;6.80;;;2.53;;
16737;SDS011;17906;47.684;10.806;2024-02-14T05:25:51;6.13;;;2.90;;
16737;SDS011;17906;47.684;10.806;2024-02-14T05:28:18;6.93;;;3.00;;
16737;SDS011;17906;47.684;10.806;2024-02-14T05:30:46;7.70;;;2.80;;
16737;SDS011;17906;47.684;10.806;2024-02-14T05:33:13;6.73;;;3.10;;
16737;SDS011;17906;47.684;10.806;2024-02-14T05:35:40;9.70;;;3.27;;
16737;SDS011;17906;47.684;10.806;2024-02-14T05:38:06;8.97;;;3.63;;
16737;SDS011;17906;47.684;10.806;2024-02-14T05:40:34;7.23;;;3.13;;
16737;SDS011;17906;47.684;10.806;2024-02-14T05:43:01;9.73;;;3.40;;
16737;SDS011;17906;47.684;10.806;2024-02-14T05:45:27;11.30;;;4.00;;
16737;SDS011;17906;47.684;10.806;2024-02-14T05:47:54;10.40;;;4.43;;
16737;SDS011;17906;47.684;10.806;2024-02-14T05:50:22;7.63;;;4.00;;
16737;SDS011;17906;47.684;10.806;2024-02-14T05:52:48;13.13;;;5.23;;
16737;SDS011;17906;47.684;10.806;2024-02-14T05:55:14;14.03;;;5.43;;
16737;SDS011;17906;47.684;10.806;2024-02-14T05:57:41;12.57;;;4.80;;
16737;SDS011;17906;47.684;10.806;2024-02-14T06:00:07;16.10;;;5.40;;
16737;SDS011;17906;47.684;10.806;2024-02-14T06:02:35;12.90;;;5.33;;
16737;SDS011;17906;47.684;10.806;2024-02-14T06:05:01;17.87;;;6.47;;
16737;SDS011;17906;47.684;10.806;2024-02-14T06:07:29;14.00;;;5.47;;
16737;SDS011;17906;47.684;10.806;2024-02-14T06:09:55;13.10;;;5.20;;
16737;SDS011;17906;47.684;10.806;2024-02-14T06:12:22;17.00;;;6.67;;
16737;SDS011;17906;47.684;10.806;2024-02-14T06:14:48;17.03;;;6.50;;
16737;SDS011;17906;47.684;10.806;2024-02-14T06:17:15;10.00;;;4.73;;
16737;SDS011;17906;47.684;10.806;2024-02-14T06:19:41;11.57;;;4.87;;
16737;SDS011;17906;47.684;10.806;2024-02-14T06:22:08;14.30;;;5.23;;
16737;SDS011;17906;47.684;10.806;2024-02-14T06:24:37;14.00;;;5.53;;
16737;SDS011;17906;47.684;10.806;2024-02-14T06:27:03;24.27;;;9.00;;
16737;SDS011;17906;47.684;10.806;2024-02-14T06:29:30;17.43;;;6.63;;
16737;SDS011;17906;47.684;10.806;2024-02-14T06:31:56;12.53;;;5.20;;
16737;SDS011;17906;47.684;10.806;2024-02-14T06:34:23;9.67;;;4.10;;
16737;SDS011;17906;47.684;10.806;2024-02-14T06:36:51;10.03;;;3.80;;
16737;SDS011;17906;47.684;10.806;2024-02-14T06:39:17;7.80;;;2.63;;
16737;SDS011;17906;47.684;10.806;2024-02-14T06:41:45;4.53;;;2.37;;
16737;SDS011;17906;47.684;10.806;2024-02-14T06:44:12;5.07;;;2.40;;
16737;SDS011;17906;47.684;10.806;2024-02-14T06:46:38;5.63;;;2.53;;
16737;SDS011;17906;47.684;10.806;2024-02-14T06:49:07;7.73;;;3.03;;
16737;SDS011;17906;47.684;10.806;2024-02-14T06:51:33;11.37;;;4.80;;
16737;SDS011;17906;47.684;10.806;2024-02-14T06:54:00;12.67;;;5.37;;
16737;SDS011;17906;47.684;10.806;2024-02-14T06:56:26;8.77;;;3.87;;
16737;SDS011;17906;47.684;10.806;2024-02-14T06:58:54;5.97;;;2.40;;
16737;SDS011;17906;47.684;10.806;2024-02-14T07:01:24;5.13;;;2.30;;
16737;SDS011;17906;47.684;10.806;2024-02-14T07:03:52;5.03;;;2.20;;
16737;SDS011;17906;47.684;10.806;2024-02-14T07:06:18;4.97;;;2.20;;
16737;SDS011;17906;47.684;10.806;2024-02-14T07:08:44;8.37;;;2.23;;
16737;SDS011;17906;47.684;10.806;2024-02-14T07:11:12;6.33;;;2.30;;
16737;SDS011;17906;47.684;10.806;2024-02-14T07:13:40;6.33;;;2.37;;
16737;SDS011;17906;47.684;10.806;2024-02-14T07:16:08;4.43;;;1.67;;
16737;SDS011;17906;47.684;10.806;2024-02-14T07:18:34;3.80;;;1.80;;
16737;SDS011;17906;47.684;10.806;2024-02-14T07:21:01;4.80;;;2.30;;
16737;SDS011;17906;47.684;10.806;2024-02-14T07:23:27;3.77;;;2.10;;
16737;SDS011;17906;47.684;10.806;2024-02-14T07:25:53;5.63;;;2.17;;
16737;SDS011;17906;47.684;10.806;2024-02-14T07:28:20;5.37;;;2.20;;
16737;SDS011;17906;47.684;10.806;2024-02-14T07:30:46;4.57;;;2.53;;
16737;SDS011;17906;47.684;10.806;2024-02-14T07:33:15;6.80;;;3.13;;
16737;SDS011;17906;47.684;10.806;2024-02-14T07:35:41;3.17;;;1.90;;
16737;SDS011;17906;47.684;10.806;2024-02-14T07:38:08;3.47;;;1.60;;
16737;SDS011;17906;47.684;10.806;2024-02-14T07:40:35;4.17;;;1.60;;
16737;SDS011;17906;47.684;10.806;2024-02-14T07:43:01;4.67;;;2.40;;
16737;SDS011;17906;47.684;10.806;2024-02-14T07:45:27;4.03;;;1.90;;
16737;SDS011;17906;47.684;10.806;2024-02-14T07:47:54;7.93;;;3.10;;
16737;SDS011;17906;47.684;10.806;2024-02-14T07:50:21;5.17;;;2.70;;
16737;SDS011;17906;47.684;10.806;2024-02-14T07:52:48;8.20;;;3.57;;
16737;SDS011;17906;47.684;10.806;2024-02-14T07:55:14;6.10;;;2.90;;
16737;SDS011;17906;47.684;10.806;2024-02-14T07:57:40;12.80;;;3.00;;
16737;SDS011;17906;47.684;10.806;2024-02-14T08:00:07;7.37;;;3.43;;
16737;SDS011;17906;47.684;10.806;2024-02-14T08:02:35;8.10;;;3.13;;
16737;SDS011;17906;47.684;10.806;2024-02-14T08:05:02;7.73;;;3.27;;
16737;SDS011;17906;47.684;10.806;2024-02-14T08:07:31;6.37;;;3.23;;
16737;SDS011;17906;47.684;10.806;2024-02-14T08:09:57;5.03;;;2.60;;
16737;SDS011;17906;47.684;10.806;2024-02-14T08:12:24;6.10;;;2.90;;
16737;SDS011;17906;47.684;10.806;2024-02-14T08:14:51;7.23;;;2.30;;
16737;SDS011;17906;47.684;10.806;2024-02-14T08:17:17;6.40;;;2.80;;
16737;SDS011;17906;47.684;10.806;2024-02-14T08:19:44;5.20;;;2.50;;
16737;SDS011;17906;47.684;10.806;2024-02-14T08:22:10;7.20;;;3.20;;
16737;SDS011;17906;47.684;10.806;2024-02-14T08:24:39;19.63;;;9.10;;
16737;SDS011;17906;47.684;10.806;2024-02-14T08:27:06;19.70;;;9.30;;
16737;SDS011;17906;47.684;10.806;2024-02-14T08:29:32;14.37;;;6.23;;
16737;SDS011;17906;47.684;10.806;2024-02-14T08:31:58;15.73;;;7.30;;
16737;SDS011;17906;47.684;10.806;2024-02-14T08:34:25;22.97;;;10.13;;
16737;SDS011;17906;47.684;10.806;2024-02-14T08:36:51;11.53;;;5.53;;
16737;SDS011;17906;47.684;10.806;2024-02-14T08:39:18;6.53;;;3.03;;
16737;SDS011;17906;47.684;10.806;2024-02-14T08:41:46;3.67;;;1.83;;
16737;SDS011;17906;47.684;10.806;2024-02-14T08:44:12;7.20;;;3.20;;
16737;SDS011;17906;47.684;10.806;2024-02-14T08:46:39;5.00;;;3.00;;
16737;SDS011;17906;47.684;10.806;2024-02-14T08:49:07;8.27;;;3.50;;
16737;SDS011;17906;47.684;10.806;2024-02-14T08:51:34;6.80;;;3.47;;
16737;SDS011;17906;47.684;10.806;2024-02-14T08:54:00;5.80;;;3.10;;
16737;SDS011;17906;47.684;10.806;2024-02-14T08:56:30;8.00;;;3.10;;
16737;SDS011;17906;47.684;10.806;2024-02-14T08:58:58;7.60;;;3.60;;
16737;SDS011;17906;47.684;10.806;2024-02-14T09:01:25;6.03;;;3.37;;
16737;SDS011;17906;47.684;10.806;2024-02-14T09:03:51;4.13;;;2.40;;
16737;SDS011;17906;47.684;10.806;2024-02-14T09:06:17;5.37;;;2.50;;
16737;SDS011;17906;47.684;10.806;2024-02-14T09:08:44;5.97;;;2.60;;
16737;SDS011;17906;47.684;10.806;2024-02-14T09:11:11;3.20;;;2.27;;
16737;SDS011;17906;47.684;10.806;2024-02-14T09:13:38;4.73;;;1.93;;
16737;SDS011;17906;47.684;10.806;2024-02-14T09:16:07;2.20;;;1.50;;
16737;SDS011;17906;47.684;10.806;2024-02-14T09:18:33;4.53;;;1.20;;
16737;SDS011;17906;47.684;10.806;2024-02-14T09:21:00;2.40;;;1.10;;
16737;SDS011;17906;47.684;10.806;2024-02-14T09:23:26;4.43;;;1.40;;
16737;SDS011;17906;47.684;10.806;2024-02-14T09:25:53;1.97;;;1.10;;
16737;SDS011;17906;47.684;10.806;2024-02-14T09:28:19;3.13;;;1.40;;
16737;SDS011;17906;47.684;10.806;2024-02-14T09:30:46;2.07;;;1.10;;
16737;SDS011;17906;47.684;10.806;2024-02-14T09:33:14;2.23;;;0.90;;
16737;SDS011;17906;47.684;10.806;2024-02-14T09:35:41;3.10;;;0.90;;
16737;SDS011;17906;47.684;10.806;2024-02-14T09:38:09;1.33;;;0.80;;
16737;SDS011;17906;47.684;10.806;2024-02-14T09:40:35;2.23;;;1.00;;
16737;SDS011;17906;47.684;10.806;2024-02-14T09:43:03;1.40;;;0.80;;
16737;SDS011;17906;47.684;10.806;2024-02-14T09:45:31;1.63;;;1.00;;
16737;SDS011;17906;47.684;10.806;2024-02-14T09:47:58;4.33;;;2.30;;
16737;SDS011;17906;47.684;10.806;2024-02-14T09:50:26;5.87;;;1.77;;
16737;SDS011;17906;47.684;10.806;2024-02-14T09:52:55;5.57;;;1.87;;
16737;SDS011;17906;47.684;10.806;2024-02-14T09:55:22;1.67;;;1.00;;
16737;SDS011;17906;47.684;10.806;2024-02-14T09:57:49;2.77;;;1.10;;
16737;SDS011;17906;47.684;10.806;2024-02-14T10:00:15;2.40;;;1.20;;
16737;SDS011;17906;47.684;10.806;2024-02-14T10:02:42;4.30;;;0.73;;
16737;SDS011;17906;47.684;10.806;2024-02-14T10:05:09;1.90;;;1.00;;
16737;SDS011;17906;47.684;10.806;2024-02-14T10:07:44;1.37;;;0.60;;
16737;SDS011;17906;47.684;10.806;2024-02-14T10:10:11;5.50;;;0.60;;
16737;SDS011;17906;47.684;10.806;2024-02-14T10:12:38;1.93;;;0.50;;
16737;SDS011;17906;47.684;10.806;2024-02-14T10:15:06;0.90;;;0.40;;
16737;SDS011;17906;47.684;10.806;2024-02-14T10:17:33;1.83;;;0.83;;
16737;SDS011;17906;47.684;10.806;2024-02-14T10:20:00;3.77;;;1.30;;
16737;SDS011;17906;47.684;10.806;2024-02-14T10:22:32;2.10;;;1.23;;
16737;SDS011;17906;47.684;10.806;2024-02-14T10:25:00;1.13;;;0.73;;
16737;SDS011;17906;47.684;10.806;2024-02-14T10:27:27;0.80;;;0.30;;
16737;SDS011;17906;47.684;10.806;2024-02-14T10:29:55;2.70;;;0.80;;
16737;SDS011;17906;47.684;10.806;2024-02-14T10:32:22;2.73;;;0.70;;
16737;SDS011;17906;47.684;10.806;2024-02-14T10:34:49;1.43;;;0.63;;
16737;SDS011;17906;47.684;10.806;2024-02-14T10:37:16;2.30;;;0.90;;
16737;SDS011;17906;47.684;10.806;2024-02-14T10:39:44;2.20;;;1.20;;
16737;SDS011;17906;47.684;10.806;2024-02-14T10:42:13;4.00;;;1.53;;
16737;SDS011;17906;47.684;10.806;2024-02-14T10:44:40;4.10;;;0.90;;
16737;SDS011;17906;47.684;10.806;2024-02-14T10:47:06;1.67;;;0.77;;
16737;SDS011;17906;47.684;10.806;2024-02-14T10:49:36;3.00;;;1.40;;
16737;SDS011;17906;47.684;10.806;2024-02-14T10:52:04;1.77;;;1.10;;
16737;SDS011;17906;47.684;10.806;2024-02-14T10:54:32;1.27;;;0.90;;
16737;SDS011;17906;47.684;10.806;2024-02-14T10:57:01;4.00;;;2.37;;
16737;SDS011;17906;47.684;10.806;2024-02-14T10:59:33;4.53;;;2.57;;
16737;SDS011;17906;47.684;10.806;2024-02-14T11:02:01;3.67;;;1.80;;
16737;SDS011;17906;47.684;10.806;2024-02-14T11:04:28;3.83;;;1.07;;
16737;SDS011;17906;47.684;10.806;2024-02-14T11:06:55;1.17;;;0.50;;
16737;SDS011;17906;47.684;10.806;2024-02-14T11:09:31;1.87;;;1.30;;
16737;SDS011;17906;47.684;10.806;2024-02-14T11:11:58;0.60;;;0.50;;
16737;SDS011;17906;47.684;10.806;2024-02-14T11:14:29;2.70;;;0.90;;
16737;SDS011;17906;47.684;10.806;2024-02-14T11:16:57;1.27;;;0.70;;
16737;SDS011;17906;47.684;10.806;2024-02-14T11:19:30;1.27;;;0.70;;
16737;SDS011;17906;47.684;10.806;2024-02-14T11:21:58;2.00;;;1.20;;
16737;SDS011;17906;47.684;10.806;2024-02-14T11:24:26;0.93;;;0.50;;
16737;SDS011;17906;47.684;10.806;2024-02-14T11:26:54;2.27;;;0.70;;
16737;SDS011;17906;47.684;10.806;2024-02-14T11:29:21;1.30;;;0.80;;
16737;SDS011;17906;47.684;10.806;2024-02-14T11:31:59;2.20;;;0.90;;
16737;SDS011;17906;47.684;10.806;2024-02-14T11:34:26;1.93;;;0.80;;
16737;SDS011;17906;47.684;10.806;2024-02-14T11:36:52;3.07;;;1.47;;
16737;SDS011;17906;47.684;10.806;2024-02-14T11:39:19;2.50;;;1.20;;
16737;SDS011;17906;47.684;10.806;2024-02-14T11:41:46;2.13;;;1.10;;
16737;SDS011;17906;47.684;10.806;2024-02-14T11:44:12;1.93;;;0.97;;
16737;SDS011;17906;47.684;10.806;2024-02-14T11:46:39;1.20;;;0.63;;
16737;SDS011;17906;47.684;10.806;2024-02-14T11:49:08;1.87;;;1.03;;
16737;SDS011;17906;47.684;10.806;2024-02-14T11:51:35;1.03;;;0.60;;
16737;SDS011;17906;47.684;10.806;2024-02-14T11:54:01;3.13;;;1.83;;
16737;SDS011;17906;47.684;10.806;2024-02-14T11:56:30;3.87;;;1.33;;
16737;SDS011;17906;47.684;10.806;2024-02-14T11:58:59;1.20;;;0.67;;
16737;SDS011;17906;47.684;10.806;2024-02-14T12:01:25;1.80;;;1.00;;
16737;SDS011;17906;47.684;10.806;2024-02-14T12:03:52;1.70;;;1.00;;
16737;SDS011;17906;47.684;10.806;2024-02-14T12:06:20;3.43;;;0.50;;
16737;SDS011;17906;47.684;10.806;2024-02-14T12:08:47;1.47;;;0.50;;
16737;SDS011;17906;47.684;10.806;2024-02-14T12:11:13;3.13;;;1.37;;
16737;SDS011;17906;47.684;10.806;2024-02-14T12:13:40;0.60;;;0.37;;
16737;SDS011;17906;47.684;10.806;2024-02-14T12:16:08;1.10;;;0.70;;
16737;SDS011;17906;47.684;10.806;2024-02-14T12:18:36;0.20;;;0.20;;
16737;SDS011;17906;47.684;10.806;2024-02-14T12:21:05;0.40;;;0.10;;
16737;SDS011;17906;47.684;10.806;2024-02-14T12:23:35;0.10;;;0.10;;
16737;SDS011;17906;47.684;10.806;2024-02-14T12:26:02;0.70;;;0.20;;
16737;SDS011;17906;47.684;10.806;2024-02-14T12:28:29;0.40;;;0.23;;
16737;SDS011;17906;47.684;10.806;2024-02-14T12:30:56;0.30;;;0.13;;
16737;SDS011;17906;47.684;10.806;2024-02-14T12:33:23;0.40;;;0.20;;
16737;SDS011;17906;47.684;10.806;2024-02-14T12:35:50;0.60;;;0.60;;
16737;SDS011;17906;47.684;10.806;2024-02-14T12:38:17;0.53;;;0.40;;
16737;SDS011;17906;47.684;10.806;2024-02-14T12:40:45;1.00;;;0.60;;
16737;SDS011;17906;47.684;10.806;2024-02-14T12:43:12;0.30;;;0.20;;
16737;SDS011;17906;47.684;10.806;2024-02-14T12:45:40;0.30;;;0.20;;
16737;SDS011;17906;47.684;10.806;2024-02-14T12:48:07;0.30;;;0.20;;
16737;SDS011;17906;47.684;10.806;2024-02-14T12:50:34;0.30;;;0.30;;
16737;SDS011;17906;47.684;10.806;2024-02-14T12:53:00;0.70;;;0.40;;
16737;SDS011;17906;47.684;10.806;2024-02-14T12:55:27;0.30;;;0.20;;
16737;SDS011;17906;47.684;10.806;2024-02-14T12:57:55;0.40;;;0.20;;
16737;SDS011;17906;47.684;10.806;2024-02-14T13:00:21;0.30;;;0.27;;
16737;SDS011;17906;47.684;10.806;2024-02-14T13:02:48;0.37;;;0.20;;
16737;SDS011;17906;47.684;10.806;2024-02-14T13:05:14;0.40;;;0.20;;
16737;SDS011;17906;47.684;10.806;2024-02-14T13:07:41;0.20;;;0.20;;
16737;SDS011;17906;47.684;10.806;2024-02-14T13:10:07;0.43;;;0.20;;
16737;SDS011;17906;47.684;10.806;2024-02-14T13:12:34;0.40;;;0.27;;
16737;SDS011;17906;47.684;10.806;2024-02-14T13:15:02;0.50;;;0.20;;
16737;SDS011;17906;47.684;10.806;2024-02-14T13:17:29;1.23;;;0.20;;
16737;SDS011;17906;47.684;10.806;2024-02-14T13:19:55;0.37;;;0.30;;
16737;SDS011;17906;47.684;10.806;2024-02-14T13:22:23;0.57;;;0.20;;
16737;SDS011;17906;47.684;10.806;2024-02-14T13:24:50;0.30;;;0.20;;
16737;SDS011;17906;47.684;10.806;2024-02-14T13:27:16;2.67;;;0.40;;
16737;SDS011;17906;47.684;10.806;2024-02-14T13:29:42;0.30;;;0.20;;
16737;SDS011;17906;47.684;10.806;2024-02-14T13:32:10;0.93;;;0.20;;
16737;SDS011;17906;47.684;10.806;2024-02-14T13:34:37;0.80;;;0.47;;
16737;SDS011;17906;47.684;10.806;2024-02-14T13:37:03;1.60;;;0.20;;
16737;SDS011;17906;47.684;10.806;2024-02-14T13:39:30;0.60;;;0.20;;
16737;SDS011;17906;47.684;10.806;2024-02-14T13:41:57;0.23;;;0.20;;
16737;SDS011;17906;47.684;10.806;2024-02-14T13:44:25;0.20;;;0.20;;
16737;SDS011;17906;47.684;10.806;2024-02-14T13:46:51;0.93;;;0.20;;
16737;SDS011;17906;47.684;10.806;2024-02-14T13:49:19;2.83;;;0.50;;
16737;SDS011;17906;47.684;10.806;2024-02-14T13:51:47;1.10;;;0.37;;
16737;SDS011;17906;47.684;10.806;2024-02-14T13:54:15;0.30;;;0.23;;
16737;SDS011;17906;47.684;10.806;2024-02-14T13:56:42;0.90;;;0.20;;
16737;SDS011;17906;47.684;10.806;2024-02-14T13:59:08;1.30;;;0.30;;
16737;SDS011;17906;47.684;10.806;2024-02-14T14:01:35;0.70;;;0.40;;
16737;SDS011;17906;47.684;10.806;2024-02-14T14:04:02;0.67;;;0.40;;
16737;SDS011;17906;47.684;10.806;2024-02-14T14:06:30;0.40;;;0.27;;
16737;SDS011;17906;47.684;10.806;2024-02-14T14:08:56;1.43;;;0.80;;
16737;SDS011;17906;47.684;10.806;2024-02-14T14:11:24;2.57;;;0.50;;
16737;SDS011;17906;47.684;10.806;2024-02-14T14:13:50;2.00;;;0.40;;
16737;SDS011;17906;47.684;10.806;2024-02-14T14:16:16;1.30;;;0.50;;
16737;SDS011;17906;47.684;10.806;2024-02-14T14:18:46;0.40;;;0.30;;
16737;SDS011;17906;47.684;10.806;2024-02-14T14:21:12;0.50;;;0.30;;
16737;SDS011;17906;47.684;10.806;2024-02-14T14:23:42;0.60;;;0.30;;
16737;SDS011;17906;47.684;10.806;2024-02-14T14:26:09;0.50;;;0.30;;
16737;SDS011;17906;47.684;10.806;2024-02-14T14:28:35;0.50;;;0.30;;
16737;SDS011;17906;47.684;10.806;2024-02-14T14:31:02;0.67;;;0.40;;
16737;SDS011;17906;47.684;10.806;2024-02-14T14:33:28;2.13;;;0.50;;